Time;durP1;ratioP1;P1;durP2;ratioP2;P2;SDS_P1;SDS_P2;PMS_P1;PMS_P2;Temp;Humidity;BMP_temperature;BMP_pressure;BME280_temperature;BME280_humidity;BME280_pressure;Samples;Min_cycle;Max_cycle;Signal;HPM_P1;HPM_P2
2024/03/11 00:27:39;;;;;;;2.90;1.80;;;;;;;5.09;36.72;100438.41;105271;1255;69050;-59
2024/03/11 00:30:51;;;;;;;3.50;2.10;;;;;;;4.80;36.74;100454.25;104632;1253;72480;-59
2024/03/11 00:34:06;;;;;;;3.30;1.90;;;;;;;4.73;37.39;100458.10;104333;1269;60505;-59
2024/03/11 00:37:18;;;;;;;2.60;1.50;;;;;;;4.76;37.19;100462.44;104630;1254;60640;-60
2024/03/11 00:40:29;;;;;;;4.00;1.90;;;;;;;4.72;37.44;100467.85;104808;1257;74164;-60
2024/03/11 00:43:22;;;;;;;3.00;1.80;;;;;;;4.67;37.44;100473.25;106441;1254;70188;-59
2024/03/11 00:46:15;;;;;;;3.80;1.60;;;;;;;4.71;37.47;100478.27;104397;1275;71327;-59
2024/03/11 00:49:26;;;;;;;2.80;1.80;;;;;;;4.62;37.49;100476.76;105546;1253;61125;-59
2024/03/11 00:52:38;;;;;;;3.10;1.80;;;;;;;4.77;37.35;100480.50;106700;1252;59782;-60
2024/03/11 00:55:52;;;;;;;2.00;1.40;;;;;;;5.29;36.35;100481.01;104842;1256;74113;-59
2024/03/11 00:59:04;;;;;;;3.70;1.80;;;;;;;5.01;37.17;100485.39;105772;1256;69415;-59
2024/03/11 01:02:16;;;;;;;3.70;1.60;;;;;;;4.87;37.09;100485.13;107331;1252;72330;-59
2024/03/11 01:05:29;;;;;;;2.50;1.80;;;;;;;5.07;36.72;100477.01;104742;1257;60506;-59
2024/03/11 01:08:40;;;;;;;1.60;1.50;;;;;;;5.35;36.25;100478.02;104751;1255;60729;-59
2024/03/11 01:11:53;;;;;;;2.40;1.80;;;;;;;4.84;36.81;100482.72;105211;1258;73714;-59
2024/03/11 01:15:07;;;;;;;2.70;1.40;;;;;;;4.77;37.15;100485.88;108257;1254;69140;-59
2024/03/11 01:18:23;;;;;;;3.20;1.90;;;;;;;4.75;37.41;100484.33;108287;1253;72345;-60
2024/03/11 01:21:35;;;;;;;2.80;1.80;;;;;;;4.80;37.44;100482.21;108275;1253;59785;-60
2024/03/11 01:24:49;;;;;;;2.10;1.50;;;;;;;4.83;37.17;100486.72;108211;1253;60079;-60
2024/03/11 01:28:03;;;;;;;2.80;1.30;;;;;;;4.83;37.37;100490.71;108368;1253;74545;-60
2024/03/11 01:31:15;;;;;;;2.70;1.80;;;;;;;4.88;37.10;100490.86;108354;1253;69140;-60
2024/03/11 01:34:26;;;;;;;2.80;1.40;;;;;;;4.96;37.32;100493.56;108376;1253;73310;-59
2024/03/11 01:37:37;;;;;;;3.60;1.50;;;;;;;5.54;36.52;100498.02;108270;1252;60151;-59
2024/03/11 01:44:09;;;;;;;2.70;1.90;;;;;;;4.72;38.36;100507.02;101863;1292;615556;-59
2024/03/11 01:46:44;;;;;;;3.60;1.70;;;;;;;5.20;36.94;100509.94;103730;1276;61126;-59
2024/03/11 01:49:56;;;;;;;3.20;1.70;;;;;;;5.13;37.18;100515.38;104254;1265;60136;-59
2024/03/11 01:53:07;;;;;;;3.20;2.20;;;;;;;5.00;37.00;100517.36;103841;1277;73043;-59
2024/03/11 01:55:40;;;;;;;3.30;1.80;;;;;;;4.89;37.13;100521.26;105633;1263;69436;-59
2024/03/11 01:58:51;;;;;;;2.60;2.00;;;;;;;4.82;37.31;100524.94;103917;1283;187783;-59
2024/03/11 02:11:52;;;;;;;4.10;2.00;;;;;;;4.74;37.52;100527.41;104679;1262;69443;-58
2024/03/11 02:15:03;;;;;;;3.50;1.90;;;;;;;4.71;37.30;100531.07;104102;1263;72350;-59
2024/03/11 02:18:14;;;;;;;2.30;1.70;;;;;;;4.68;37.69;100534.04;104518;1263;60124;-58
2024/03/11 02:24:20;;;;;;;4.40;2.20;;;;;;;4.53;37.98;100533.06;104512;1266;71660;-59
2024/03/11 02:26:48;;;;;;;3.40;1.70;;;;;;;4.52;37.79;100533.59;104213;1265;68819;-59
2024/03/11 02:36:57;;;;;;;2.50;2.00;;;;;;;4.43;38.14;100536.40;104273;1265;60234;-61
2024/03/11 02:39:27;;;;;;;2.70;1.70;;;;;;;4.37;38.29;100541.10;103835;1279;73370;-59
2024/03/11 02:46:08;;;;;;;3.40;1.90;;;;;;;4.39;38.61;100543.52;104006;1266;73081;-59
2024/03/11 02:49:18;;;;;;;3.00;1.90;;;;;;;4.24;38.45;100523.09;104829;1263;60805;-59
2024/03/11 02:52:23;;;;;;;3.00;1.90;;;;;;;4.38;38.57;100547.16;104963;1265;59680;-60
2024/03/11 02:55:34;;;;;;;2.60;1.80;;;;;;;4.32;38.71;100550.13;103954;1275;72752;-59
2024/03/11 03:01:31;;;;;;;2.60;1.90;;;;;;;4.31;38.60;100557.08;104935;1263;71293;-60
2024/03/11 03:04:42;;;;;;;2.60;2.10;;;;;;;4.32;38.78;100556.73;105232;1266;61010;-60
2024/03/11 03:14:14;;;;;;;3.00;1.80;;;;;;;4.22;38.87;100551.38;104436;1266;70615;-59
2024/03/11 03:17:18;;;;;;;2.10;1.60;;;;;;;4.20;39.34;100551.20;104724;1262;72373;-59
2024/03/11 03:19:51;;;;;;;3.50;1.70;;;;;;;4.12;39.23;100540.30;104728;1261;60619;-60
2024/03/11 03:22:23;;;;;;;3.20;2.00;;;;;;;4.24;39.34;100551.90;106872;1258;59938;-60
2024/03/11 03:25:34;;;;;;;2.80;1.70;;;;;;;4.20;39.15;100553.13;105299;1259;73147;-59
2024/03/11 03:28:29;;;;;;;2.10;1.70;;;;;;;4.21;39.43;100558.84;105354;1259;69942;-59
2024/03/11 03:31:14;;;;;;;3.40;1.70;;;;;;;4.20;39.31;100557.10;104855;1260;73127;-58
2024/03/11 03:34:25;;;;;;;2.30;1.60;;;;;;;4.22;39.25;100556.58;104540;1269;59872;-59
2024/03/11 03:36:58;;;;;;;4.80;1.90;;;;;;;4.21;39.64;100558.15;105068;1256;59772;-58
2024/03/11 03:40:15;;;;;;;2.80;1.80;;;;;;;4.15;39.32;100558.33;104991;1259;73423;-59
2024/03/11 03:42:46;;;;;;;2.50;1.50;;;;;;;4.06;39.71;100554.52;104894;1256;69182;-60
2024/03/11 03:45:13;;;;;;;3.50;1.70;;;;;;;4.04;39.87;100560.08;105037;1264;72346;-59
2024/03/11 03:47:44;;;;;;;;;;;;;;;4.05;39.76;100565.11;105607;1256;60121;-59
2024/03/11 03:50:21;;;;;;;2.40;1.70;;;;;;;4.05;40.10;100565.80;104454;1258;61081;-59
2024/03/11 03:52:47;;;;;;;2.90;1.70;;;;;;;4.04;39.99;100561.13;104900;1257;72671;-58
2024/03/11 03:55:14;;;;;;;2.00;1.80;;;;;;;4.04;40.14;100563.38;106396;1256;70319;-59
2024/03/11 03:57:50;;;;;;;8.70;2.20;;;;;;;4.03;39.88;100565.11;105543;1258;71463;-60
2024/03/11 04:03:43;;;;;;;2.50;1.60;;;;;;;4.00;40.25;100563.39;104812;1261;60520;-58
2024/03/11 04:06:10;;;;;;;1.90;1.60;;;;;;;3.92;40.36;100565.31;104349;1260;73298;-59
2024/03/11 04:09:24;;;;;;;3.70;1.70;;;;;;;3.86;40.57;100566.86;105407;1260;70033;-59
2024/03/11 04:11:57;;;;;;;3.40;1.70;;;;;;;3.82;40.86;100572.42;105014;1259;72157;-59
2024/03/11 04:15:11;;;;;;;3.40;2.20;;;;;;;3.78;40.58;100569.13;105707;1257;59611;-59
2024/03/11 04:18:23;;;;;;;1.70;1.60;;;;;;;3.80;41.04;100568.95;105382;1255;60070;-59
2024/03/11 04:24:27;;;;;;;4.00;2.20;;;;;;;3.79;41.19;100579.36;104260;1273;69864;-60
2024/03/11 04:27:37;;;;;;;2.80;2.00;;;;;;;3.75;41.47;100585.25;104331;1273;73005;-59
2024/03/11 04:30:48;;;;;;;7.00;2.20;;;;;;;3.83;40.93;100584.38;104820;1275;59960;-59
2024/03/11 04:33:52;;;;;;;2.30;1.50;;;;;;;3.86;40.81;100592.71;105091;1259;59978;-58
2024/03/11 04:37:03;;;;;;;2.70;2.00;;;;;;;3.88;41.06;100593.75;104345;1266;73381;-59
2024/03/11 04:39:31;;;;;;;2.50;2.00;;;;;;;3.90;41.06;100594.11;104305;1261;70403;-58
2024/03/11 04:42:42;;;;;;;3.90;2.10;;;;;;;3.90;41.14;100601.91;104782;1259;72526;-58
2024/03/11 04:45:17;;;;;;;5.40;2.20;;;;;;;3.88;40.88;100601.20;104420;1261;60548;-58
2024/03/11 04:51:20;;;;;;;2.80;2.20;;;;;;;3.94;41.64;100600.68;104985;1258;73284;-59
2024/03/11 04:54:30;;;;;;;3.30;3.00;;;;;;;3.95;41.60;100603.13;104827;1263;70698;-59
2024/03/11 04:57:42;;;;;;;2.80;2.50;;;;;;;3.98;41.92;100603.80;104300;1269;71392;-59
2024/03/11 05:00:43;;;;;;;4.90;2.30;;;;;;;4.07;41.96;100610.41;105618;1259;60445;-58
2024/03/11 05:03:12;;;;;;;2.90;1.90;;;;;;;4.15;41.94;100613.34;105966;1256;60102;-58
2024/03/11 05:05:46;;;;;;;4.30;2.20;;;;;;;4.26;41.52;100615.23;104680;1257;73399;-58
2024/03/11 05:08:54;;;;;;;4.60;2.20;;;;;;;4.34;41.25;100616.42;105711;1257;70075;-60
2024/03/11 05:11:21;;;;;;;4.20;2.60;;;;;;;4.37;41.58;100616.27;105314;1254;72565;-59
2024/03/11 05:13:54;;;;;;;4.10;2.70;;;;;;;4.46;41.55;100622.48;104981;1256;59779;-59
2024/03/11 05:20:31;;;;;;;4.40;2.90;;;;;;;4.44;41.51;100629.44;104938;1257;73053;-60
2024/03/11 05:26:28;;;;;;;5.20;2.40;;;;;;;5.75;39.81;100627.97;104690;1256;73286;-59
2024/03/11 05:29:13;;;;;;;3.40;2.10;;;;;;;5.91;39.10;100632.73;105114;1256;61858;-61
2024/03/11 05:35:53;;;;;;;3.60;2.60;;;;;;;5.70;39.68;100634.96;106352;1260;72592;-59
2024/03/11 05:39:06;;;;;;;3.90;2.60;;;;;;;5.75;39.90;100639.80;105587;1255;69038;-60
2024/03/11 05:42:17;;;;;;;2.90;2.30;;;;;;;5.79;39.52;100638.02;104591;1260;73399;-59
2024/03/11 05:52:29;;;;;;;2.70;2.00;;;;;;;6.02;39.32;100643.62;106959;1257;73279;-58
2024/03/11 05:55:21;;;;;;;2.50;2.10;;;;;;;6.07;39.62;100650.03;105259;1258;69164;-60
2024/03/11 05:58:33;;;;;;;3.80;2.20;;;;;;;6.13;39.52;100657.82;104967;1260;73230;-60
2024/03/11 06:01:20;;;;;;;5.80;2.30;;;;;;;6.24;39.64;100657.55;107651;1257;61403;-61
2024/03/11 06:03:49;;;;;;;3.20;1.90;;;;;;;6.32;39.44;100662.52;107877;1256;59943;-61
2024/03/11 06:07:00;;;;;;;3.00;1.80;;;;;;;6.42;39.45;100666.09;107863;1257;72777;-64
2024/03/11 06:10:10;;;;;;;3.80;2.30;;;;;;;6.56;39.32;100671.19;107934;1257;68195;-65
2024/03/11 06:13:11;;;;;;;2.80;2.00;;;;;;;6.19;39.76;100676.55;107957;1257;72531;-66
2024/03/11 06:16:18;;;;;;;2.20;2.00;;;;;;;6.09;40.15;100684.65;107866;1257;58256;-64
2024/03/11 06:22:20;;;;;;;3.20;2.20;;;;;;;6.17;40.29;100678.85;107763;1257;72913;-64
2024/03/11 06:25:34;;;;;;;2.40;1.70;;;;;;;6.25;40.13;100684.35;108149;1254;68117;-63
2024/03/11 06:28:45;;;;;;;2.50;2.00;;;;;;;6.39;39.91;100685.45;108219;1254;72385;-64
2024/03/11 06:31:25;;;;;;;3.70;2.40;;;;;;;6.46;39.62;100679.11;108177;1254;59782;-63
2024/03/11 06:34:37;;;;;;;3.90;2.10;;;;;;;6.51;39.56;100684.64;107838;1254;59596;-63
2024/03/11 06:37:54;;;;;;;2.90;2.10;;;;;;;6.48;39.53;100684.86;107879;1256;72703;-66
2024/03/11 06:41:04;;;;;;;2.50;1.60;;;;;;;6.60;39.49;100683.69;108103;1254;69959;-63
2024/03/11 06:44:17;;;;;;;6.90;2.60;;;;;;;6.80;38.75;100693.23;108120;1254;72504;-65
2024/03/11 06:46:57;;;;;;;2.10;1.50;;;;;;;6.96;38.26;100689.58;108114;1254;59598;-66
2024/03/11 06:49:32;;;;;;;6.80;1.70;;;;;;;6.91;38.23;100692.26;107781;1254;60537;-65
2024/03/11 06:55:38;;;;;;;3.40;1.90;;;;;;;7.07;37.66;100693.12;108139;1254;69273;-61
2024/03/11 06:58:46;;;;;;;3.90;1.70;;;;;;;7.16;37.38;100693.54;107761;1254;71813;-62
2024/03/11 07:01:16;;;;;;;1.90;1.70;;;;;;;7.22;37.47;100698.16;108128;1254;60306;-61
2024/03/11 07:03:49;;;;;;;3.20;1.80;;;;;;;7.39;37.25;100700.73;108084;1254;61818;-62
2024/03/11 07:06:59;;;;;;;4.10;1.70;;;;;;;7.42;36.60;100696.00;107712;1254;72472;-63
2024/03/11 07:09:34;;;;;;;3.90;2.10;;;;;;;7.48;36.52;100698.88;107805;1254;70059;-64
2024/03/11 07:12:01;;;;;;;4.00;2.20;;;;;;;7.65;36.35;100697.60;107667;1257;72689;-64
2024/03/11 07:32:19;;;;;;;6.40;2.70;;;;;;;8.02;35.73;100712.60;108446;1251;59861;-65
2024/03/11 07:34:52;;;;;;;9.30;3.20;;;;;;;8.09;35.26;100709.00;108186;1254;60546;-66
2024/03/11 07:37:25;;;;;;;6.70;3.20;;;;;;;8.20;35.47;100711.80;108381;1252;72878;-66
2024/03/11 07:39:55;;;;;;;12.60;3.40;;;;;;;8.21;35.05;100718.25;108205;1251;69613;-66
2024/03/11 07:43:17;;;;;;;10.00;3.60;;;;;;;8.25;35.01;100716.09;108424;1251;71237;-65
2024/03/11 07:46:15;;;;;;;9.20;3.60;;;;;;;8.32;35.22;100716.67;108253;1251;58597;-66
2024/03/11 07:49:20;;;;;;;9.80;3.00;;;;;;;8.42;35.39;100716.88;108533;1251;60233;-65
2024/03/11 07:51:47;;;;;;;10.50;3.00;;;;;;;8.74;34.67;100719.46;108496;1251;73796;-63
2024/03/11 07:54:15;;;;;;;6.60;3.00;;;;;;;9.23;34.13;100716.60;108211;1252;69865;-65
2024/03/11 07:57:01;;;;;;;7.40;3.00;;;;;;;8.70;34.53;100715.35;108469;1251;72264;-65
2024/03/11 07:59:52;;;;;;;4.80;2.60;;;;;;;8.65;34.71;100709.67;108089;1251;59090;-64
2024/03/11 08:02:20;;;;;;;9.30;3.10;;;;;;;8.65;34.89;100708.47;108252;1253;61768;-64
2024/03/11 08:05:03;;;;;;;12.20;5.10;;;;;;;8.79;34.74;100706.46;108497;1251;74347;-64
2024/03/11 08:07:32;;;;;;;7.70;2.90;;;;;;;8.91;34.44;100704.66;108186;1254;69615;-64
2024/03/11 08:10:18;;;;;;;2.90;2.50;;;;;;;9.00;34.26;100711.29;108458;1251;71632;-63
2024/03/11 08:13:22;;;;;;;6.20;2.80;;;;;;;9.04;34.10;100716.13;108401;1251;59430;-64
2024/03/11 08:16:11;;;;;;;7.40;3.90;;;;;;;9.13;34.02;100709.30;108229;1251;60590;-64
2024/03/11 08:18:40;;;;;;;5.90;3.20;;;;;;;9.17;34.14;100707.29;108423;1251;73988;-66
2024/03/11 08:21:10;;;;;;;6.70;3.70;;;;;;;9.26;33.97;100702.23;108238;1251;70891;-63
2024/03/11 08:23:37;;;;;;;4.00;3.00;;;;;;;9.36;33.59;100700.08;108400;1251;72525;-64
2024/03/11 08:26:17;;;;;;;;;;;;;;;9.42;33.26;100704.50;108420;1252;60186;-64
2024/03/11 08:28:44;;;;;;;4.10;2.80;;;;;;;9.46;33.20;100702.67;108481;1251;62622;-65
2024/03/11 08:31:54;;;;;;;5.30;3.30;;;;;;;9.47;33.07;100703.19;108454;1251;73600;-64
2024/03/11 08:35:03;;;;;;;4.80;2.90;;;;;;;9.60;32.82;100703.63;108462;1251;68371;-63
2024/03/11 08:37:36;;;;;;;6.30;3.20;;;;;;;9.68;32.56;100706.56;108492;1251;72335;-63
2024/03/11 08:40:08;;;;;;;4.40;2.80;;;;;;;9.74;32.13;100714.33;108449;1251;59475;-63
2024/03/11 08:43:27;;;;;;;5.90;3.30;;;;;;;9.82;32.11;100708.89;108464;1251;60063;-64
2024/03/11 08:46:11;;;;;;;4.70;2.20;;;;;;;9.82;31.81;100708.89;108443;1251;73542;-64
2024/03/11 08:48:38;;;;;;;3.30;2.50;;;;;;;9.88;31.95;100713.13;108215;1251;69154;-64
2024/03/11 08:51:29;;;;;;;3.10;2.60;;;;;;;9.99;32.19;100711.84;108237;1253;72999;-62
2024/03/11 08:53:56;;;;;;;5.40;2.80;;;;;;;10.07;31.91;100714.79;108435;1251;59284;-64
2024/03/11 08:56:31;;;;;;;4.80;2.80;;;;;;;10.17;31.12;100711.05;108461;1251;60230;-66
2024/03/11 08:59:25;;;;;;;3.80;2.70;;;;;;;10.56;31.03;100711.16;108484;1251;73552;-65
2024/03/11 09:02:01;;;;;;;3.30;2.10;;;;;;;10.40;30.74;100703.52;108446;1251;70036;-66
2024/03/11 09:04:31;;;;;;;5.30;2.40;;;;;;;10.36;30.83;100702.92;108116;1253;71825;-62
2024/03/11 09:06:58;;;;;;;3.40;2.70;;;;;;;10.46;31.09;100704.25;108146;1251;59631;-62
2024/03/11 09:09:43;;;;;;;4.30;2.70;;;;;;;10.54;30.78;100705.97;108459;1251;60271;-61
2024/03/11 09:12:22;;;;;;;10.30;3.30;;;;;;;10.63;30.72;100703.64;108490;1251;74424;-63
2024/03/11 09:14:49;;;;;;;5.10;2.80;;;;;;;10.64;30.35;100702.89;108463;1251;69601;-63
2024/03/11 09:18:30;;;;;;;5.30;2.50;;;;;;;10.76;30.30;100695.39;108239;1251;72425;-63
2024/03/11 09:21:05;;;;;;;4.00;2.10;;;;;;;10.91;30.25;100690.95;108468;1251;59283;-66
2024/03/11 09:24:27;;;;;;;5.90;3.00;;;;;;;11.02;29.79;100685.74;108502;1251;60019;-66
2024/03/11 09:27:02;;;;;;;4.30;2.80;;;;;;;11.19;29.68;100688.77;108460;1251;73808;-67
2024/03/11 09:30:11;;;;;;;6.80;3.10;;;;;;;11.27;29.51;100686.25;108499;1251;69532;-65
2024/03/11 09:33:29;;;;;;;8.10;3.20;;;;;;;11.36;29.55;100685.83;108509;1251;74066;-65
2024/03/11 09:36:33;;;;;;;9.10;3.90;;;;;;;11.36;29.38;100685.47;108457;1251;60658;-65
2024/03/11 09:39:01;;;;;;;9.20;2.90;;;;;;;11.37;29.17;100680.17;108166;1253;60278;-63
2024/03/11 09:41:53;;;;;;;2.50;2.30;;;;;;;11.36;29.12;100677.23;108440;1251;75056;-65
2024/03/11 09:44:58;;;;;;;2.50;2.20;;;;;;;11.41;28.30;100677.96;108063;1251;69150;-64
2024/03/11 09:47:33;;;;;;;4.60;2.80;;;;;;;11.46;28.68;100667.98;108527;1251;72075;-65
2024/03/11 09:50:11;;;;;;;5.50;2.80;;;;;;;11.48;28.64;100671.92;108135;1251;59304;-64
2024/03/11 09:52:38;;;;;;;3.90;2.70;;;;;;;11.51;28.47;100668.17;108474;1251;60760;-64
2024/03/11 09:55:43;;;;;;;3.90;2.70;;;;;;;11.46;28.53;100671.14;108046;1251;74799;-64
2024/03/11 09:58:55;;;;;;;5.00;2.30;;;;;;;11.60;28.28;100671.58;108478;1253;69661;-65
2024/03/11 10:02:07;;;;;;;2.60;2.40;;;;;;;11.71;27.83;100673.52;108460;1251;73226;-66
2024/03/11 10:05:19;;;;;;;2.40;2.00;;;;;;;11.79;27.99;100671.18;108267;1251;59478;-62
2024/03/11 10:07:49;;;;;;;3.80;2.40;;;;;;;11.75;27.66;100670.94;108224;1251;60673;-60
2024/03/11 10:10:35;;;;;;;2.50;1.70;;;;;;;11.81;27.68;100669.17;108431;1251;74361;-61
2024/03/11 10:13:39;;;;;;;2.20;1.80;;;;;;;11.82;27.22;100664.73;108191;1251;69784;-63
2024/03/11 10:16:44;;;;;;;;;;;;;;;11.85;26.68;100658.34;108175;1251;73168;-64
2024/03/11 10:19:22;;;;;;;2.70;2.00;;;;;;;11.91;27.27;100658.88;108389;1252;61521;-62
2024/03/11 10:22:29;;;;;;;2.00;1.90;;;;;;;11.91;27.00;100650.61;108410;1251;59072;-68
2024/03/11 10:25:35;;;;;;;2.20;2.00;;;;;;;11.79;26.57;100650.98;108427;1251;74874;-64
2024/03/11 10:28:44;;;;;;;2.00;1.80;;;;;;;11.88;26.38;100654.40;108368;1251;70181;-63
2024/03/11 10:31:31;;;;;;;2.30;1.50;;;;;;;11.98;26.40;100644.41;108379;1251;72764;-64
2024/03/11 10:34:20;;;;;;;2.70;2.00;;;;;;;12.06;26.53;100638.01;107984;1251;60291;-64
2024/03/11 10:38:01;;;;;;;3.30;2.20;;;;;;;12.07;26.35;100640.61;108091;1253;59715;-63
2024/03/11 10:40:36;;;;;;;3.50;2.10;;;;;;;12.16;25.85;100638.41;108297;1251;74096;-63
2024/03/11 10:43:41;;;;;;;5.90;2.00;;;;;;;12.14;26.32;100637.05;108476;1251;70143;-62
2024/03/11 10:47:03;;;;;;;2.90;1.90;;;;;;;12.14;26.02;100634.92;108203;1251;71582;-64
2024/03/11 10:49:40;;;;;;;2.80;1.70;;;;;;;12.18;25.67;100630.59;108461;1251;58898;-63
2024/03/11 10:53:07;;;;;;;2.20;1.80;;;;;;;12.17;24.99;100622.88;108214;1251;61036;-62
2024/03/11 10:55:34;;;;;;;2.30;1.90;;;;;;;12.25;25.11;100623.14;108494;1251;73816;-62
2024/03/11 10:58:20;;;;;;;2.60;1.80;;;;;;;12.23;25.82;100624.60;108187;1251;70179;-63
2024/03/11 11:01:30;;;;;;;3.60;1.40;;;;;;;12.30;25.46;100623.14;108209;1251;71412;-63
2024/03/11 11:04:33;;;;;;;2.00;1.60;;;;;;;12.32;25.33;100623.61;108347;1251;59681;-62
2024/03/11 11:07:33;;;;;;;2.30;1.90;;;;;;;12.42;25.28;100619.04;108499;1251;60546;-62
2024/03/11 11:10:01;;;;;;;6.30;2.10;;;;;;;12.42;25.19;100616.40;108422;1251;73564;-63
2024/03/11 11:13:05;;;;;;;2.30;1.80;;;;;;;12.48;25.07;100610.75;108433;1252;69434;-62
2024/03/11 11:16:34;;;;;;;5.40;1.70;;;;;;;12.55;25.14;100609.63;108452;1251;71715;-62
2024/03/11 11:19:46;;;;;;;2.20;1.50;;;;;;;12.65;24.86;100611.00;108448;1251;59313;-62
2024/03/11 11:22:58;;;;;;;5.60;2.10;;;;;;;12.75;24.89;100603.96;108447;1251;60192;-63
2024/03/11 11:25:32;;;;;;;2.50;1.80;;;;;;;12.77;24.64;100601.27;108489;1250;73520;-65
2024/03/11 11:28:37;;;;;;;3.80;1.60;;;;;;;12.80;24.46;100602.89;108447;1251;68271;-62
2024/03/11 11:31:49;;;;;;;3.00;1.70;;;;;;;12.93;24.27;100597.51;108498;1251;72194;-62
2024/03/11 11:35:00;;;;;;;2.90;2.00;;;;;;;13.14;24.25;100592.13;108426;1251;60218;-62
2024/03/11 11:38:11;;;;;;;2.30;1.60;;;;;;;13.18;24.11;100591.81;108243;1251;60494;-62
2024/03/11 11:40:44;;;;;;;2.30;1.60;;;;;;;13.21;24.61;100587.80;108499;1251;74532;-62
2024/03/11 11:44:25;;;;;;;2.70;1.80;;;;;;;13.11;24.60;100591.73;108455;1251;69971;-62
2024/03/11 11:47:09;;;;;;;2.80;1.70;;;;;;;13.13;24.42;100591.63;108348;1251;72797;-60
2024/03/11 11:49:41;;;;;;;2.00;1.70;;;;;;;13.13;24.56;100592.70;107828;1251;59906;-62
2024/03/11 11:53:22;;;;;;;4.20;2.00;;;;;;;13.07;24.20;100591.50;108446;1251;60146;-62
2024/03/11 11:56:33;;;;;;;5.10;2.10;;;;;;;13.03;24.20;100591.48;108168;1251;74669;-62
2024/03/11 11:59:43;;;;;;;5.30;2.00;;;;;;;13.07;24.38;100588.54;108394;1252;69499;-65
2024/03/11 12:02:21;;;;;;;5.00;2.20;;;;;;;13.13;24.42;100590.58;108297;1251;72503;-62
2024/03/11 12:05:50;;;;;;;2.20;1.80;;;;;;;13.23;24.40;100590.73;108250;1251;59403;-62
2024/03/11 12:08:24;;;;;;;3.60;1.90;;;;;;;13.20;24.37;100588.40;108379;1251;62198;-62
2024/03/11 12:11:10;;;;;;;6.20;2.00;;;;;;;13.32;24.15;100585.48;108326;1251;72618;-62
2024/03/11 12:13:56;;;;;;;3.30;2.10;;;;;;;13.45;24.26;100583.91;108496;1251;69403;-63
2024/03/11 12:17:02;;;;;;;3.70;1.90;;;;;;;13.53;24.16;100579.04;108150;1251;74170;-62
2024/03/11 12:19:30;;;;;;;5.20;2.50;;;;;;;13.55;23.74;100577.71;108265;1253;59955;-62
2024/03/11 12:22:15;;;;;;;3.10;2.20;;;;;;;13.69;23.98;100586.33;108511;1251;59577;-62
2024/03/11 12:24:45;;;;;;;2.20;2.00;;;;;;;13.88;23.66;100581.29;108468;1251;74547;-62
2024/03/11 12:28:07;;;;;;;5.70;2.30;;;;;;;13.98;23.53;100584.94;108346;1251;69943;-62
2024/03/11 12:31:22;;;;;;;6.50;2.40;;;;;;;14.07;23.60;100581.02;108489;1251;72727;-62
2024/03/11 12:34:08;;;;;;;4.20;2.40;;;;;;;14.24;23.22;100576.61;108471;1251;59990;-62
2024/03/11 12:37:49;;;;;;;6.50;2.20;;;;;;;14.29;23.17;100571.10;108276;1251;60143;-62
2024/03/11 12:41:00;;;;;;;6.50;2.10;;;;;;;14.28;23.03;100569.19;108530;1251;73586;-63
2024/03/11 12:43:38;;;;;;;4.60;2.60;;;;;;;14.11;23.09;100565.52;108399;1251;70888;-62
2024/03/11 12:47:01;;;;;;;3.70;2.60;;;;;;;14.26;22.80;100563.45;108469;1253;72592;-62
2024/03/11 12:50:11;;;;;;;7.30;2.80;;;;;;;14.26;22.99;100554.81;108430;1251;60290;-64
2024/03/11 12:52:44;;;;;;;4.30;2.10;;;;;;;14.16;23.20;100552.79;108478;1251;59141;-62
2024/03/11 12:55:41;;;;;;;4.20;2.60;;;;;;;14.16;23.10;100553.14;108412;1251;74628;-63
2024/03/11 12:58:12;;;;;;;6.50;2.70;;;;;;;14.18;23.07;100550.04;108432;1252;71874;-62
2024/03/11 13:01:35;;;;;;;3.40;2.40;;;;;;;14.25;23.03;100554.73;108356;1251;71436;-62
2024/03/11 13:04:49;;;;;;;3.20;2.10;;;;;;;14.24;22.57;100552.28;108325;1251;59333;-63
2024/03/11 13:07:28;;;;;;;3.60;2.30;;;;;;;14.29;22.59;100555.04;108443;1251;60288;-64
2024/03/11 13:10:16;;;;;;;5.50;2.50;;;;;;;14.32;22.67;100552.65;108110;1251;73350;-64
2024/03/11 13:13:39;;;;;;;2.90;2.40;;;;;;;14.35;22.58;100549.13;108138;1253;69516;-64
2024/03/11 13:16:15;;;;;;;5.30;2.80;;;;;;;14.48;22.60;100549.27;108173;1253;72710;-63
2024/03/11 13:19:45;;;;;;;6.80;2.80;;;;;;;14.49;22.58;100552.39;108213;1251;59561;-63
2024/03/11 13:22:18;;;;;;;8.80;2.90;;;;;;;14.52;22.62;100542.23;108520;1251;60798;-62
2024/03/11 13:25:50;;;;;;;4.80;2.70;;;;;;;14.52;22.58;100540.31;108441;1251;73254;-63
2024/03/11 13:28:23;;;;;;;3.50;2.70;;;;;;;14.66;22.71;100534.39;108471;1251;70967;-63
2024/03/11 13:31:12;;;;;;;6.30;3.20;;;;;;;14.81;22.50;100542.19;108449;1251;74070;-64
2024/03/11 13:34:05;;;;;;;4.40;3.30;;;;;;;14.75;22.26;100538.19;108453;1251;60213;-63
2024/03/11 13:37:08;;;;;;;4.90;3.50;;;;;;;14.91;22.17;100535.34;108482;1251;60832;-63
2024/03/11 13:39:59;;;;;;;40.00;25.30;;;;;;;15.05;22.21;100528.00;108437;1251;74224;-63
2024/03/11 13:42:44;;;;;;;22.40;13.70;;;;;;;15.05;22.25;100524.46;108437;1252;69426;-63
2024/03/11 13:45:40;;;;;;;14.50;8.90;;;;;;;15.12;22.18;100523.45;108437;1251;72721;-63
2024/03/11 13:48:43;;;;;;;9.30;4.90;;;;;;;15.33;22.17;100518.17;108406;1251;58431;-62
2024/03/11 13:51:28;;;;;;;6.10;3.60;;;;;;;15.49;22.10;100519.34;108458;1251;60984;-62
2024/03/11 13:55:00;;;;;;;12.80;6.00;;;;;;;15.69;21.76;100515.17;108446;1251;75091;-66
2024/03/11 14:00:51;;;;;;;86.10;47.70;;;;;;;15.06;22.68;100513.79;101587;1291;602463;-62
2024/03/11 14:04:02;;;;;;;46.60;29.80;;;;;;;16.11;21.60;100505.08;104665;1266;61229;-65
2024/03/11 14:06:56;;;;;;;48.50;25.20;;;;;;;16.26;21.52;100503.27;103908;1270;59991;-64
2024/03/11 14:10:02;;;;;;;95.10;51.10;;;;;;;16.13;21.21;100500.41;104994;1266;71125;-63
2024/03/11 14:13:13;;;;;;;75.50;40.10;;;;;;;16.16;21.24;100503.45;100678;1264;5366257;-65
2024/03/11 14:16:26;;;;;;;19.30;12.10;;;;;;;16.27;21.26;100498.77;105035;1265;73048;-64
2024/03/11 14:19:37;;;;;;;102.60;67.40;;;;;;;16.27;20.84;100495.77;104709;1266;60569;-63
2024/03/11 14:22:50;;;;;;;61.00;36.70;;;;;;;16.80;20.79;100492.57;104000;1268;60273;-63
2024/03/11 14:26:02;;;;;;;83.30;50.90;;;;;;;16.63;20.59;100491.35;104177;1272;72074;-61
2024/03/11 14:29:15;;;;;;;414.80;280.10;;;;;;;15.88;21.30;100488.09;103708;1269;69537;-60
2024/03/11 14:31:54;;;;;;;341.80;212.60;;;;;;;15.62;21.39;100490.12;105096;1265;72818;-60
2024/03/11 14:35:00;;;;;;;91.70;51.30;;;;;;;15.57;21.51;100481.16;103672;1281;60990;-61
2024/03/11 14:38:26;;;;;;;168.10;95.40;;;;;;;15.44;21.25;100484.08;104273;1269;59993;-61
2024/03/11 14:41:32;;;;;;;52.50;26.10;;;;;;;15.35;21.38;100489.78;103512;1266;72027;-60
2024/03/11 14:44:38;;;;;;;101.90;61.60;;;;;;;15.22;21.33;100487.83;103973;1269;70195;-61
2024/03/11 14:47:51;;;;;;;46.90;24.40;;;;;;;15.15;21.46;100488.50;104775;1253;74577;-62
2024/03/11 14:51:03;;;;;;;22.80;13.90;;;;;;;14.92;21.50;100489.58;104329;1258;59612;-61
2024/03/11 14:54:15;;;;;;;44.80;22.40;;;;;;;14.71;21.88;100487.38;104597;1253;60157;-61
2024/03/11 14:56:56;;;;;;;16.70;9.40;;;;;;;14.32;21.86;100462.36;104429;1258;75453;-62
2024/03/11 15:00:11;;;;;;;34.50;20.80;;;;;;;14.42;21.86;100486.19;105118;1256;72357;-62
2024/03/11 15:03:17;;;;;;;20.50;12.20;;;;;;;14.15;22.16;100483.17;104720;1258;74085;-61
2024/03/11 15:06:31;;;;;;;31.40;16.30;;;;;;;13.74;22.64;100482.88;104510;1258;59668;-62
2024/03/11 15:09:42;;;;;;;115.70;52.20;;;;;;;13.40;22.71;100481.06;105087;1255;62737;-61
2024/03/11 15:12:16;;;;;;;34.20;16.10;;;;;;;13.05;22.80;100480.71;104956;1253;73201;-61
2024/03/11 15:14:43;;;;;;;18.20;8.60;;;;;;;12.82;23.10;100478.44;105705;1253;69272;-61
2024/03/11 15:17:50;;;;;;;8.80;6.20;;;;;;;12.69;23.29;100478.42;104441;1254;73159;-60
2024/03/11 15:21:02;;;;;;;9.60;5.30;;;;;;;12.58;23.32;100476.72;104608;1259;59746;-61
2024/03/11 15:24:21;;;;;;;8.30;4.90;;;;;;;12.19;23.81;100477.44;105217;1254;62449;-62
2024/03/11 15:27:39;;;;;;;9.00;5.00;;;;;;;11.84;23.74;100469.37;104956;1252;74576;-60
2024/03/11 15:30:51;;;;;;;9.10;5.30;;;;;;;11.89;23.91;100483.08;104622;1259;69661;-61